Time;durP1;ratioP1;P1;durP2;ratioP2;P2;SDS_P1;SDS_P2;PMS_P1;PMS_P2;Temp;Humidity;BMP_temperature;BMP_pressure;BME280_temperature;BME280_humidity;BME280_pressure;Samples;Min_cycle;Max_cycle;Signal;HPM_P1;HPM_P2
2022/12/06 00:01:25;;;;;;;7.63;3.67;;;;;;;-142.75;100.00;78551.06;5004901;28;20082;-66
2022/12/06 00:03:54;;;;;;;7.97;4.00;;;;;;;-142.75;100.00;78539.25;5004478;28;20028;-65
2022/12/06 00:06:22;;;;;;;8.47;3.60;;;;;;;-142.75;100.00;78547.13;5005428;28;20016;-65
2022/12/06 00:08:48;;;;;;;16.80;4.30;;;;;;;-142.75;100.00;78541.22;5004835;28;20028;-65
2022/12/06 00:11:20;;;;;;;9.27;4.37;;;;;;;-142.75;100.00;78558.94;5002795;28;20028;-66
2022/12/06 00:13:46;;;;;;;14.53;4.30;;;;;;;-142.75;100.00;78570.75;5004331;28;20750;-64
2022/12/06 00:16:14;;;;;;;9.63;3.67;;;;;;;-142.75;100.00;78558.94;5006546;28;20047;-65
2022/12/06 00:18:42;;;;;;;8.87;4.33;;;;;;;-142.75;100.00;78566.81;5002846;28;20054;-65
2022/12/06 00:21:23;;;;;;;7.30;3.40;;;;;;;-142.75;100.00;78576.66;5004644;28;20020;-66
2022/12/06 00:23:55;;;;;;;7.30;3.30;;;;;;;-142.75;100.00;78564.84;5004755;28;20028;-66
2022/12/06 00:26:23;;;;;;;10.97;3.40;;;;;;;-142.75;100.00;78582.59;5003915;28;20044;-64
2022/12/06 00:28:51;;;;;;;9.18;4.15;;;;;;;-142.75;100.00;78580.59;5004647;28;20025;-65
2022/12/06 00:31:18;;;;;;;9.73;3.43;;;;;;;-142.75;100.00;78580.59;5004305;28;20627;-63
2022/12/06 00:33:44;;;;;;;7.67;3.73;;;;;;;-142.75;100.00;78572.72;5004363;28;20579;-64
2022/12/06 00:36:15;;;;;;;9.18;3.70;;;;;;;-142.75;100.00;78570.75;5004066;28;20029;-66
2022/12/06 00:38:41;;;;;;;8.40;3.17;;;;;;;-142.75;100.00;78582.59;5004328;28;20549;-64
2022/12/06 00:41:09;;;;;;;6.10;3.33;;;;;;;-142.75;100.00;78574.69;5004363;28;20094;-64
2022/12/06 00:43:35;;;;;;;11.87;3.57;;;;;;;-142.75;100.00;78558.94;5001511;28;20656;-64
2022/12/06 00:46:02;;;;;;;10.75;4.07;;;;;;;-142.75;100.00;78555.00;5004248;28;20094;-63
2022/12/06 00:48:27;;;;;;;6.13;2.83;;;;;;;-142.75;100.00;78574.69;5004513;28;20556;-64
2022/12/06 00:50:54;;;;;;;8.90;3.80;;;;;;;-142.75;100.00;78570.75;4997833;28;20021;-64
2022/12/06 00:53:19;;;;;;;;;;;;;;;-142.75;100.00;78598.34;5004035;28;20560;-64
2022/12/06 00:55:46;;;;;;;10.53;4.10;;;;;;;-142.75;100.00;78594.41;5030217;22;20295;-69
2022/12/06 00:58:12;;;;;;;8.63;3.10;;;;;;;-142.75;100.00;78582.59;4955512;28;20033;-69
2022/12/06 01:00:38;;;;;;;5.50;3.07;;;;;;;-142.75;100.00;78590.47;4955132;28;20021;-69
2022/12/06 01:03:04;;;;;;;11.35;3.38;;;;;;;-142.75;100.00;78580.59;4951906;28;20584;-69
2022/12/06 01:05:29;;;;;;;11.45;2.80;;;;;;;-142.75;100.00;78572.72;4964499;28;20033;-69
2022/12/06 01:07:55;;;;;;;8.35;2.90;;;;;;;-142.75;100.00;78574.69;4955187;28;20021;-70
2022/12/06 01:10:21;;;;;;;11.63;3.38;;;;;;;-142.75;100.00;78574.69;4953647;28;20330;-70
2022/12/06 01:12:46;;;;;;;8.43;3.28;;;;;;;-142.75;100.00;78562.88;4956474;28;20317;-70
2022/12/06 01:15:12;;;;;;;7.55;3.38;;;;;;;-142.75;100.00;78568.78;4961064;28;20036;-70
2022/12/06 01:17:37;;;;;;;8.13;2.72;;;;;;;-142.75;100.00;78568.78;4956115;28;20017;-71
2022/12/06 01:20:04;;;;;;;8.82;3.08;;;;;;;-142.75;100.00;78574.69;4950955;28;20397;-71
2022/12/06 01:22:30;;;;;;;8.17;3.37;;;;;;;-142.75;100.00;78564.84;4951128;28;20030;-69
2022/12/06 01:24:55;;;;;;;8.20;3.30;;;;;;;-142.75;100.00;78574.69;4961513;28;20312;-70
2022/12/06 01:27:21;;;;;;;5.20;2.95;;;;;;;-142.75;100.00;78572.72;4955903;28;20478;-69
2022/12/06 01:29:46;;;;;;;7.53;2.95;;;;;;;-142.75;100.00;78566.81;4945905;28;20312;-69
2022/12/06 01:32:12;;;;;;;6.97;3.40;;;;;;;-142.75;100.00;78558.94;4945423;28;20451;-70
2022/12/06 01:34:37;;;;;;;6.78;2.70;;;;;;;-142.75;100.00;78564.84;4953627;28;20195;-69
2022/12/06 01:37:03;;;;;;;7.63;3.10;;;;;;;-142.75;100.00;78558.94;4961114;28;20443;-69
2022/12/06 01:39:29;;;;;;;6.88;2.50;;;;;;;-142.75;100.00;78556.97;4950181;28;20208;-70
2022/12/06 01:41:54;;;;;;;6.93;2.97;;;;;;;-142.75;100.00;78572.72;4954966;28;20366;-69
2022/12/06 01:44:46;;;;;;;11.10;2.80;;;;;;;-142.75;100.00;78590.47;4955196;28;20271;-69
2022/12/06 01:47:21;;;;;;;8.10;2.50;;;;;;;-142.75;100.00;78594.41;4950138;28;20103;-69
2022/12/06 01:49:52;;;;;;;7.03;2.87;;;;;;;-142.75;100.00;78572.72;4953478;28;20156;-69
2022/12/06 01:52:23;;;;;;;10.70;2.97;;;;;;;-142.75;100.00;78582.59;4948841;28;20057;-69
2022/12/06 01:54:48;;;;;;;8.53;3.00;;;;;;;-142.75;100.00;78594.41;4948453;28;20025;-70
2022/12/06 01:57:15;;;;;;;6.80;2.17;;;;;;;-142.75;100.00;78590.47;4950576;28;20334;-69
2022/12/06 01:59:41;;;;;;;10.90;3.13;;;;;;;-142.75;100.00;78590.47;4952596;28;20107;-69
2022/12/06 02:02:07;;;;;;;11.50;3.00;;;;;;;-142.75;100.00;78598.34;4956241;28;20110;-70
2022/12/06 02:04:33;;;;;;;7.85;2.47;;;;;;;-142.75;100.00;78594.41;4951077;28;20430;-70
2022/12/06 02:07:00;;;;;;;7.63;2.67;;;;;;;-142.75;100.00;78594.41;4944660;28;20033;-69
2022/12/06 02:09:27;;;;;;;11.55;2.63;;;;;;;-142.75;100.00;78592.44;4953405;28;20055;-69
2022/12/06 02:11:52;;;;;;;8.00;2.77;;;;;;;-142.75;100.00;78582.59;4961822;28;20037;-69
2022/12/06 02:14:23;;;;;;;5.07;2.33;;;;;;;-142.75;100.00;78578.63;4954976;28;20367;-70
2022/12/06 02:17:20;;;;;;;10.20;2.83;;;;;;;-142.75;100.00;78586.53;4950504;28;20168;-69
2022/12/06 02:19:53;;;;;;;5.35;2.33;;;;;;;-142.75;100.00;78584.56;4956309;28;20017;-69
2022/12/06 02:22:49;;;;;;;6.20;2.17;;;;;;;-142.75;100.00;78578.63;4952218;28;20040;-70
2022/12/06 02:25:28;;;;;;;7.33;2.13;;;;;;;-142.75;100.00;78562.88;4948978;28;20585;-69
2022/12/06 02:28:14;;;;;;;7.70;2.77;;;;;;;-142.75;100.00;78582.59;4952289;28;20029;-69
2022/12/06 02:30:51;;;;;;;4.97;2.17;;;;;;;-142.75;100.00;78582.59;4958639;28;20029;-70
2022/12/06 02:33:34;;;;;;;8.30;3.00;;;;;;;-142.75;100.00;78574.69;4956492;28;20026;-69
2022/12/06 02:36:08;;;;;;;7.87;2.23;;;;;;;-142.75;100.00;78584.56;4949871;28;20022;-69
2022/12/06 02:38:41;;;;;;;12.40;2.53;;;;;;;-142.75;100.00;78570.75;4947609;28;20025;-70
2022/12/06 02:41:11;;;;;;;7.93;2.30;;;;;;;-142.75;100.00;78564.84;4954473;28;20625;-68
2022/12/06 02:43:42;;;;;;;4.10;2.20;;;;;;;-142.75;100.00;78562.88;4960882;28;20555;-69
2022/12/06 02:46:12;;;;;;;8.93;2.13;;;;;;;-142.75;100.00;78564.84;4951091;28;20140;-69
2022/12/06 02:48:39;;;;;;;4.93;1.93;;;;;;;-142.75;100.00;78578.63;4961329;28;20052;-70
2022/12/06 02:51:12;;;;;;;7.20;2.40;;;;;;;-142.75;100.00;78566.81;4954030;28;20136;-70
2022/12/06 02:53:43;;;;;;;8.50;2.27;;;;;;;-142.75;100.00;78562.88;4950567;28;20013;-70
2022/12/06 02:56:09;;;;;;;5.27;1.93;;;;;;;-142.75;100.00;78562.88;4950595;28;20032;-70
2022/12/06 02:58:36;;;;;;;12.73;2.35;;;;;;;-142.75;100.00;78572.72;4953448;28;20025;-69
2022/12/06 03:01:08;;;;;;;4.83;2.10;;;;;;;-142.75;100.00;78564.84;4948963;28;20026;-70
2022/12/06 03:04:11;;;;;;;6.80;2.03;;;;;;;-142.75;100.00;78570.75;4956140;28;20059;-70
2022/12/06 03:06:43;;;;;;;4.00;1.93;;;;;;;-142.75;100.00;78574.69;4952598;28;20620;-69
2022/12/06 03:09:24;;;;;;;4.70;2.17;;;;;;;-142.75;100.00;78574.69;4956338;28;20044;-70
2022/12/06 03:11:58;;;;;;;11.30;2.27;;;;;;;-142.75;100.00;78578.63;4957755;28;20033;-70
2022/12/06 03:14:27;;;;;;;5.40;1.80;;;;;;;-142.75;100.00;78558.94;4941680;28;20040;-69
2022/12/06 03:17:24;;;;;;;7.47;2.63;;;;;;;-142.75;100.00;78570.75;4949788;28;20072;-70
2022/12/06 03:20:06;;;;;;;8.13;2.10;;;;;;;-142.75;100.00;78570.75;4918212;28;20069;-70
2022/12/06 03:22:44;;;;;;;5.77;2.33;;;;;;;-142.75;100.00;78556.97;4948197;28;20087;-69
2022/12/06 03:25:11;;;;;;;9.53;2.87;;;;;;;-142.75;100.00;78568.78;4942967;28;20045;-70
2022/12/06 03:27:40;;;;;;;6.50;2.03;;;;;;;-142.75;100.00;78556.97;4953008;28;20060;-70
2022/12/06 03:30:10;;;;;;;5.53;2.20;;;;;;;-142.75;100.00;78549.09;4944191;28;20025;-70
2022/12/06 03:32:38;;;;;;;6.43;1.77;;;;;;;-142.75;100.00;78558.94;4957824;28;20036;-70
2022/12/06 03:35:08;;;;;;;7.83;2.10;;;;;;;-142.75;100.00;78562.88;4953637;28;20551;-69
2022/12/06 03:37:37;;;;;;;8.77;1.93;;;;;;;-142.75;100.00;78562.88;4953375;28;20128;-69
2022/12/06 03:40:03;;;;;;;10.23;2.20;;;;;;;-142.75;100.00;78551.06;4948801;28;20032;-69
2022/12/06 03:42:30;;;;;;;3.92;1.88;;;;;;;-142.75;100.00;78547.13;4950968;28;20192;-69
2022/12/06 03:44:57;;;;;;;8.40;2.60;;;;;;;-142.75;100.00;78551.06;4948848;28;20038;-70
2022/12/06 03:47:41;;;;;;;5.77;2.50;;;;;;;-142.75;100.00;78543.19;4951405;28;20029;-70
2022/12/06 03:50:12;;;;;;;4.97;2.07;;;;;;;-142.75;100.00;78553.03;4944890;28;20671;-70
2022/12/06 03:52:38;;;;;;;9.20;1.63;;;;;;;-142.75;100.00;78547.13;4958010;28;20025;-70
2022/12/06 03:55:04;;;;;;;14.50;2.58;;;;;;;-142.75;100.00;78553.03;4944376;28;20301;-70
2022/12/06 03:57:29;;;;;;;4.78;2.03;;;;;;;-142.75;100.00;78549.09;4942721;28;20300;-69
2022/12/06 03:59:55;;;;;;;8.48;2.30;;;;;;;-142.75;100.00;78558.94;4947257;28;20328;-68
2022/12/06 04:02:20;;;;;;;6.32;2.17;;;;;;;-142.75;100.00;78556.97;4950478;28;20382;-68
2022/12/06 04:04:46;;;;;;;4.10;2.17;;;;;;;-142.75;100.00;78555.00;4956908;28;20352;-67
2022/12/06 04:07:12;;;;;;;3.65;1.75;;;;;;;-142.75;100.00;78547.13;4956695;28;20563;-67
2022/12/06 04:10:01;;;;;;;4.15;1.95;;;;;;;-142.75;100.00;78547.13;4948883;28;20086;-67
2022/12/06 04:15:11;;;;;;;5.27;2.17;;;;;;;-142.75;100.00;78529.41;4948996;28;20099;-66
2022/12/06 04:20:26;;;;;;;8.90;2.10;;;;;;;-142.75;100.00;78543.19;4950531;28;20267;-67
2022/12/06 04:23:04;;;;;;;3.40;1.87;;;;;;;-142.75;100.00;78535.31;4958384;28;20083;-67
2022/12/06 04:25:34;;;;;;;5.10;1.77;;;;;;;-142.75;100.00;78543.19;4950196;28;20034;-67
2022/12/06 04:38:58;;;;;;;3.20;1.40;;;;;;;-142.75;100.00;78594.41;4949943;28;20053;-67
2022/12/06 04:44:08;;;;;;;5.87;1.20;;;;;;;-142.75;100.00;78612.13;4954066;28;20140;-66
2022/12/06 04:46:33;;;;;;;4.20;1.67;;;;;;;-142.75;100.00;78618.03;4948395;28;20441;-67
2022/12/06 04:48:59;;;;;;;4.90;1.55;;;;;;;-142.75;100.00;78606.22;4962315;28;20330;-67
2022/12/06 04:51:25;;;;;;;7.47;1.40;;;;;;;-142.75;100.00;78614.09;4951520;28;20321;-67
2022/12/06 04:53:50;;;;;;;4.82;1.63;;;;;;;-142.75;100.00;78604.25;4960156;28;20021;-67
2022/12/06 04:56:16;;;;;;;2.13;1.35;;;;;;;-142.75;100.00;78612.13;4962678;28;20338;-67
2022/12/06 04:58:42;;;;;;;2.60;1.33;;;;;;;-142.75;100.00;78612.13;4954774;28;20026;-66
2022/12/06 05:01:08;;;;;;;3.10;1.48;;;;;;;-142.75;100.00;78612.13;4949605;28;20389;-67
2022/12/06 05:03:34;;;;;;;5.10;1.77;;;;;;;-142.75;100.00;78612.13;4964248;28;20370;-67
2022/12/06 05:06:00;;;;;;;2.27;1.30;;;;;;;-142.75;100.00;78604.25;4944800;28;20098;-67
2022/12/06 05:08:25;;;;;;;4.80;1.55;;;;;;;-142.75;100.00;78602.28;4950000;28;20319;-67
2022/12/06 05:10:51;;;;;;;5.05;1.60;;;;;;;-142.75;100.00;78606.22;4964368;28;20063;-67
2022/12/06 05:13:18;;;;;;;4.05;1.75;;;;;;;-142.75;100.00;78602.28;4960367;28;20370;-67
2022/12/06 05:16:01;;;;;;;4.90;1.80;;;;;;;-142.75;100.00;78623.94;4951678;28;20080;-67
2022/12/06 05:18:27;;;;;;;3.90;1.40;;;;;;;-142.75;100.00;78616.06;4943110;28;20566;-67
2022/12/06 05:21:11;;;;;;;3.42;1.40;;;;;;;-142.75;100.00;78620.00;4942919;28;20026;-67
2022/12/06 05:23:37;;;;;;;8.43;1.80;;;;;;;-142.75;100.00;78629.84;4953977;28;20602;-66
2022/12/06 05:26:06;;;;;;;5.50;1.40;;;;;;;-142.75;100.00;78623.94;4961968;28;20029;-67
2022/12/06 05:28:32;;;;;;;4.67;1.20;;;;;;;-142.75;100.00;78621.97;4948584;28;20025;-67
2022/12/06 05:30:58;;;;;;;4.43;1.97;;;;;;;-142.75;100.00;78616.06;4960550;28;20052;-68
2022/12/06 05:33:24;;;;;;;4.80;1.60;;;;;;;-142.75;100.00;78606.22;4966949;28;20338;-67
2022/12/06 05:35:49;;;;;;;;;;;;;;;-142.75;100.00;78596.38;4958116;28;20025;-67
2022/12/06 05:38:15;;;;;;;5.10;1.50;;;;;;;-142.75;100.00;78592.44;4959451;28;19975;-67
2022/12/06 05:40:41;;;;;;;2.35;1.30;;;;;;;-142.75;100.00;78598.34;4944129;28;20368;-67
2022/12/06 05:43:07;;;;;;;2.70;1.30;;;;;;;-142.75;100.00;78598.34;4950160;28;20446;-66
2022/12/06 05:45:32;;;;;;;3.80;1.52;;;;;;;-142.75;100.00;78606.22;4964641;28;20140;-67
2022/12/06 05:47:58;;;;;;;3.33;1.95;;;;;;;-142.75;100.00;78604.25;4947507;28;20200;-66
2022/12/06 05:50:23;;;;;;;6.78;1.50;;;;;;;-142.75;100.00;78598.34;4950145;28;20371;-67
2022/12/06 05:52:53;;;;;;;6.97;1.58;;;;;;;-142.75;100.00;78618.03;4963371;28;20501;-67
2022/12/06 05:55:19;;;;;;;3.83;1.50;;;;;;;-142.75;100.00;78606.22;4961953;28;20127;-66
2022/12/06 05:57:44;;;;;;;8.00;2.20;;;;;;;-142.75;100.00;78600.31;4951898;28;20402;-66
2022/12/06 06:00:10;;;;;;;3.15;1.60;;;;;;;-142.75;100.00;78604.25;4947061;28;20036;-67
2022/12/06 06:02:36;;;;;;;2.78;1.27;;;;;;;-142.75;100.00;78598.34;4953716;28;20026;-66
2022/12/06 06:05:02;;;;;;;3.80;1.42;;;;;;;-142.75;100.00;78598.34;4952470;28;20359;-67
2022/12/06 06:07:28;;;;;;;3.88;1.40;;;;;;;-142.75;100.00;78614.09;4954288;28;20367;-67
2022/12/06 06:09:53;;;;;;;5.88;1.85;;;;;;;-142.75;100.00;78604.25;4948599;28;20358;-67
2022/12/06 06:12:19;;;;;;;4.55;1.45;;;;;;;-142.75;100.00;78598.34;4963435;28;20029;-67
2022/12/06 06:14:44;;;;;;;4.35;1.65;;;;;;;-142.75;100.00;78604.25;4953721;28;20470;-66
2022/12/06 06:17:10;;;;;;;2.25;1.10;;;;;;;-142.75;100.00;78625.91;4959076;28;20366;-66
2022/12/06 06:19:35;;;;;;;5.20;1.25;;;;;;;-142.75;100.00;78623.94;4950798;28;20367;-66
2022/12/06 06:22:01;;;;;;;5.45;1.42;;;;;;;-142.75;100.00;78627.88;4956410;28;20401;-66
2022/12/06 06:24:27;;;;;;;5.68;1.40;;;;;;;-142.75;100.00;78633.78;4957247;28;20235;-67
2022/12/06 06:26:53;;;;;;;5.68;1.40;;;;;;;-142.75;100.00;78629.84;4947647;28;20251;-66
2022/12/06 06:29:18;;;;;;;3.08;1.48;;;;;;;-142.75;100.00;78618.03;4953475;28;20044;-67
2022/12/06 06:31:44;;;;;;;7.05;1.40;;;;;;;-142.75;100.00;78606.22;4959407;28;20301;-66
2022/12/06 06:34:09;;;;;;;4.78;1.42;;;;;;;-142.75;100.00;78621.97;4952817;28;20335;-66
2022/12/06 06:36:35;;;;;;;3.75;1.20;;;;;;;-142.75;100.00;78608.19;4958586;28;20485;-67
2022/12/06 06:39:00;;;;;;;3.78;1.33;;;;;;;-142.75;100.00;78621.97;4959512;28;20346;-66
2022/12/06 06:41:26;;;;;;;7.97;1.75;;;;;;;-142.75;100.00;78620.00;4960840;28;20327;-66
2022/12/06 06:43:51;;;;;;;3.03;1.33;;;;;;;-142.75;100.00;78635.75;4953554;28;20442;-66
2022/12/06 06:46:17;;;;;;;3.20;1.50;;;;;;;-142.75;100.00;78645.59;4953776;28;20438;-66
2022/12/06 06:48:42;;;;;;;3.25;1.58;;;;;;;-142.75;100.00;78645.59;4942957;28;20332;-67
2022/12/06 06:51:10;;;;;;;2.90;1.27;;;;;;;-142.75;100.00;78629.84;4941255;28;20363;-66
2022/12/06 06:53:37;;;;;;;3.57;1.80;;;;;;;-142.75;100.00;78629.84;4949766;28;20017;-66
2022/12/06 06:56:03;;;;;;;3.83;1.90;;;;;;;-142.75;100.00;78637.72;4951563;28;20017;-71
2022/12/06 06:58:29;;;;;;;4.53;1.47;;;;;;;-142.75;100.00;78623.94;4945173;28;20100;-71
2022/12/06 07:00:56;;;;;;;3.55;1.38;;;;;;;-142.75;100.00;78627.88;4962508;28;20369;-72
2022/12/06 07:03:23;;;;;;;4.03;1.57;;;;;;;-142.75;100.00;78618.03;4944756;28;20034;-70
2022/12/06 07:06:01;;;;;;;3.53;1.43;;;;;;;-142.75;100.00;78625.91;4942837;28;20029;-71
2022/12/06 07:08:28;;;;;;;5.43;1.87;;;;;;;-142.75;100.00;78633.78;4959973;28;20114;-71
2022/12/06 07:10:54;;;;;;;4.07;1.43;;;;;;;-142.75;100.00;78625.91;4953305;28;20153;-70
2022/12/06 07:13:22;;;;;;;2.83;1.60;;;;;;;-142.75;100.00;78641.66;4945461;28;20136;-71
2022/12/06 07:15:48;;;;;;;4.20;1.97;;;;;;;-142.75;100.00;78633.78;4959228;28;20148;-69
2022/12/06 07:18:15;;;;;;;2.53;1.40;;;;;;;-142.75;100.00;78647.56;4956478;28;20478;-68
2022/12/06 07:20:41;;;;;;;3.17;1.60;;;;;;;-142.75;100.00;78647.56;4942914;28;20559;-69
2022/12/06 07:23:07;;;;;;;3.38;1.63;;;;;;;-142.75;100.00;78647.56;4948127;28;20080;-70
2022/12/06 07:25:32;;;;;;;5.60;1.60;;;;;;;-142.75;100.00;78653.47;4949338;28;20056;-67
2022/12/06 07:27:58;;;;;;;4.93;1.80;;;;;;;-142.75;100.00;78657.41;4945093;28;20474;-67
2022/12/06 07:30:23;;;;;;;3.67;1.70;;;;;;;-142.75;100.00;78675.16;4942644;28;20305;-67
2022/12/06 07:32:49;;;;;;;3.83;1.83;;;;;;;-142.75;100.00;78692.88;4946534;28;20424;-67
2022/12/06 07:35:14;;;;;;;2.30;1.13;;;;;;;-142.75;100.00;78700.75;4948690;28;20418;-67
2022/12/06 07:37:44;;;;;;;5.43;2.08;;;;;;;-142.75;100.00;78692.88;4956562;28;20422;-67
2022/12/06 07:40:11;;;;;;;2.87;1.30;;;;;;;-142.75;100.00;78700.75;4958541;28;20601;-66
2022/12/06 07:45:21;;;;;;;3.50;1.37;;;;;;;-142.75;100.00;78736.19;4943533;28;20056;-68
2022/12/06 07:47:47;;;;;;;5.18;1.63;;;;;;;-142.75;100.00;78732.25;4953874;28;20347;-68
2022/12/06 07:50:18;;;;;;;3.55;1.60;;;;;;;-142.75;100.00;78738.16;4951791;28;20343;-67
2022/12/06 07:52:44;;;;;;;2.80;1.30;;;;;;;-142.75;100.00;78726.34;4940435;28;20026;-68
2022/12/06 07:55:11;;;;;;;4.33;1.50;;;;;;;-142.75;100.00;78732.25;4955385;28;20026;-66
2022/12/06 07:57:36;;;;;;;3.80;1.30;;;;;;;-142.75;100.00;78740.13;4996959;28;20014;-66
2022/12/06 08:00:04;;;;;;;2.25;1.20;;;;;;;-142.75;100.00;78748.03;5007867;28;20034;-67
2022/12/06 08:02:29;;;;;;;3.43;1.57;;;;;;;-142.75;100.00;78730.28;5007058;28;20694;-67
2022/12/06 08:04:55;;;;;;;3.53;1.60;;;;;;;-142.75;100.00;78702.72;5015357;28;20033;-65
2022/12/06 08:07:21;;;;;;;4.55;1.80;;;;;;;-142.75;100.00;78694.84;5014319;28;20071;-68
2022/12/06 08:09:46;;;;;;;;;;;;;;;-142.75;100.00;78633.78;5012910;28;20128;-67
2022/12/06 08:12:12;;;;;;;2.90;1.53;;;;;;;-142.75;100.00;78590.47;5010622;28;19923;-66
2022/12/06 08:14:38;;;;;;;2.72;1.38;;;;;;;-142.75;100.00;78596.38;5009963;28;20022;-66
2022/12/06 08:17:04;;;;;;;4.47;2.00;;;;;;;-142.75;100.00;78555.00;5005598;28;20022;-64
2022/12/06 08:19:29;;;;;;;2.87;1.53;;;;;;;-142.75;100.00;78519.56;5009672;28;20357;-65
2022/12/06 08:21:55;;;;;;;5.97;1.58;;;;;;;-142.75;100.00;78497.91;5019553;28;20411;-68
2022/12/06 08:24:21;;;;;;;3.63;1.85;;;;;;;-142.75;100.00;78466.38;5011519;28;20053;-67
2022/12/06 08:26:47;;;;;;;3.70;2.13;;;;;;;-142.75;100.00;78401.38;4974250;28;20493;-67
2022/12/06 08:29:13;;;;;;;3.93;1.60;;;;;;;-142.75;100.00;78350.19;4963454;28;20354;-67
2022/12/06 08:31:38;;;;;;;6.43;1.52;;;;;;;-142.75;100.00;78314.75;4951149;28;20324;-68
2022/12/06 08:34:04;;;;;;;3.75;1.70;;;;;;;-142.75;100.00;78257.63;4952362;28;20390;-68
2022/12/06 08:36:29;;;;;;;5.13;1.65;;;;;;;-142.75;100.00;78200.53;4960112;28;20033;-67
2022/12/06 08:38:58;;;;;;;5.15;1.50;;;;;;;-142.75;100.00;78153.25;4945411;28;20029;-67
2022/12/06 08:44:12;;;;;;;2.97;1.33;;;;;;;-142.75;100.00;78031.16;4957761;28;20044;-67
2022/12/06 08:46:37;;;;;;;6.45;1.67;;;;;;;-142.75;100.00;78011.47;4948515;28;20137;-68
2022/12/06 08:49:03;;;;;;;3.97;1.65;;;;;;;-142.75;100.00;78019.34;4955060;28;20312;-68
2022/12/06 08:51:29;;;;;;;3.08;1.30;;;;;;;-142.75;100.00;77978.00;4961622;28;20308;-68
2022/12/06 08:53:55;;;;;;;3.92;1.35;;;;;;;-142.75;100.00;77989.81;4958380;28;20052;-68
2022/12/06 08:56:22;;;;;;;5.80;1.65;;;;;;;-142.75;100.00;77985.88;4964421;28;20029;-68
2022/12/06 08:58:48;;;;;;;5.70;1.63;;;;;;;-142.75;100.00;77997.69;4957970;28;20831;-67
2022/12/06 09:01:19;;;;;;;5.88;2.25;;;;;;;-142.75;100.00;77968.16;4951238;28;20061;-67
2022/12/06 09:03:45;;;;;;;4.28;1.70;;;;;;;-142.75;100.00;77989.81;4960661;28;20165;-67
2022/12/06 09:06:11;;;;;;;8.77;2.08;;;;;;;-142.75;100.00;77960.28;4957028;28;20421;-68
2022/12/06 09:08:37;;;;;;;;;;;;;;;-142.75;100.00;77968.16;4951737;28;20030;-67
2022/12/06 09:11:04;;;;;;;9.15;1.80;;;;;;;-142.75;100.00;78011.47;4950850;28;20223;-67
2022/12/06 09:13:29;;;;;;;6.10;2.15;;;;;;;-142.75;100.00;78048.88;4962189;28;20029;-68
2022/12/06 09:15:55;;;;;;;8.90;1.63;;;;;;;-142.75;100.00;78054.81;4954069;28;20338;-66
2022/12/06 09:18:21;;;;;;;4.47;1.95;;;;;;;-142.75;100.00;78027.22;4959733;28;20133;-68
2022/12/06 09:20:46;;;;;;;3.97;1.83;;;;;;;-142.75;100.00;78007.53;4949167;28;20358;-68
2022/12/06 09:23:12;;;;;;;6.22;2.00;;;;;;;-142.75;100.00;77979.97;4945329;28;20173;-68
2022/12/06 09:25:40;;;;;;;7.00;2.15;;;;;;;-142.75;100.00;77918.94;4954258;28;20397;-68
2022/12/06 09:28:06;;;;;;;5.55;2.10;;;;;;;-142.75;100.00;77932.72;4955824;28;20025;-67
2022/12/06 09:30:31;;;;;;;7.35;2.28;;;;;;;-142.75;100.00;77857.88;4959761;28;20293;-66
2022/12/06 09:32:57;;;;;;;5.60;2.28;;;;;;;-142.75;100.00;77889.38;4952897;28;20030;-66
2022/12/06 09:35:23;;;;;;;3.80;2.10;;;;;;;-142.75;100.00;77869.69;4950043;28;20379;-67
2022/12/06 09:37:48;;;;;;;4.50;1.92;;;;;;;-142.75;100.00;77885.44;4961163;28;20341;-66
2022/12/06 09:40:29;;;;;;;5.70;2.10;;;;;;;-142.75;100.00;77942.56;4957769;28;20425;-66
2022/12/06 09:43:13;;;;;;;4.30;1.60;;;;;;;-142.75;100.00;78015.41;4946895;28;20604;-66
2022/12/06 09:46:06;;;;;;;5.30;1.77;;;;;;;-142.75;100.00;78031.16;4946049;28;20029;-67
2022/12/06 09:49:16;;;;;;;4.97;1.33;;;;;;;-142.75;100.00;78052.81;4961905;28;20807;-68
2022/12/06 09:51:41;;;;;;;3.88;1.20;;;;;;;-142.75;100.00;78088.28;4915144;28;20042;-67
2022/12/06 09:54:16;;;;;;;4.03;1.30;;;;;;;-142.75;100.00;78113.88;4954564;28;20276;-68
2022/12/06 09:56:49;;;;;;;7.32;1.40;;;;;;;-142.75;100.00;78121.75;4958011;28;20025;-68
2022/12/06 09:59:36;;;;;;;4.07;1.45;;;;;;;-142.75;100.00;78141.44;4950334;28;20030;-67
2022/12/06 10:02:11;;;;;;;4.72;1.38;;;;;;;-142.75;100.00;78149.31;4950529;28;20605;-67
2022/12/06 10:05:02;;;;;;;3.75;1.25;;;;;;;-142.75;100.00;78137.50;4955089;28;20777;-68
2022/12/06 10:08:12;;;;;;;4.43;1.38;;;;;;;-142.75;100.00;78143.41;4960779;28;20033;-68
2022/12/06 10:10:58;;;;;;;7.05;1.33;;;;;;;-142.75;100.00;78159.16;4894031;28;20129;-68
2022/12/06 10:13:46;;;;;;;7.03;1.65;;;;;;;-142.75;100.00;78161.13;4903032;28;20144;-69
2022/12/06 10:16:45;;;;;;;7.88;2.72;;;;;;;-142.75;100.00;78153.25;4944341;28;20554;-68
2022/12/06 10:19:32;;;;;;;4.47;1.40;;;;;;;-142.75;100.00;78157.19;4954471;28;20040;-68
2022/12/06 10:22:07;;;;;;;6.10;1.25;;;;;;;-142.75;100.00;78188.72;4958037;28;20644;-67
2022/12/06 10:24:39;;;;;;;4.72;1.52;;;;;;;-142.75;100.00;78198.56;4951870;28;20601;-66
2022/12/06 10:27:10;;;;;;;7.20;1.55;;;;;;;-142.75;100.00;78202.50;4965424;28;20566;-68
2022/12/06 10:29:57;;;;;;;5.07;1.42;;;;;;;-142.75;100.00;78200.53;4947086;28;20061;-69
2022/12/06 10:32:22;;;;;;;3.72;1.27;;;;;;;-142.75;100.00;78228.09;4947862;28;20650;-67
2022/12/06 10:34:53;;;;;;;3.75;1.20;;;;;;;-142.75;100.00;78216.28;4952666;28;20029;-67
2022/12/06 10:37:54;;;;;;;4.07;1.30;;;;;;;-142.75;100.00;78232.03;4955475;28;20021;-68
2022/12/06 10:40:26;;;;;;;5.75;1.40;;;;;;;-142.75;100.00;78235.97;4951205;28;20096;-68
2022/12/06 10:43:04;;;;;;;3.17;1.00;;;;;;;-142.75;100.00;78237.94;4945069;28;20060;-69
2022/12/06 10:49:12;;;;;;;3.95;1.40;;;;;;;-142.75;100.00;78208.41;4936226;28;20840;-66
2022/12/06 10:52:21;;;;;;;5.60;1.48;;;;;;;-142.75;100.00;78182.81;4943885;28;20037;-67
2022/12/06 10:54:47;;;;;;;3.47;1.33;;;;;;;-142.75;100.00;78125.69;4929490;28;20566;-67
2022/12/06 10:57:22;;;;;;;4.80;1.30;;;;;;;-142.75;100.00;78094.19;4953695;28;20069;-68
2022/12/06 11:00:00;;;;;;;5.50;1.23;;;;;;;-142.75;100.00;78082.38;4961240;28;20144;-67
2022/12/06 11:03:10;;;;;;;3.47;0.90;;;;;;;-142.75;100.00;78054.81;4948292;28;20030;-67
2022/12/06 11:05:42;;;;;;;2.55;0.80;;;;;;;-142.75;100.00;78015.41;4956700;28;20085;-67
2022/12/06 11:08:34;;;;;;;2.75;0.70;;;;;;;-142.75;100.00;77940.59;4962922;28;20021;-68
2022/12/06 11:11:02;;;;;;;3.53;0.95;;;;;;;-142.75;100.00;77855.91;4951340;28;20050;-67
2022/12/06 11:13:41;;;;;;;3.80;1.05;;;;;;;-142.75;100.00;77755.50;4957218;28;20140;-67
2022/12/06 11:16:28;;;;;;;4.07;1.30;;;;;;;-142.75;100.00;77718.06;4948104;28;20087;-66
2022/12/06 11:19:18;;;;;;;4.82;1.25;;;;;;;-142.75;100.00;77704.28;4946480;28;20018;-67
2022/12/06 11:22:01;;;;;;;5.43;1.08;;;;;;;-142.75;100.00;77645.22;4954271;28;20033;-67
2022/12/06 11:24:34;;;;;;;2.45;0.90;;;;;;;-142.75;100.00;77676.72;4955459;28;20104;-67
2022/12/06 11:27:08;;;;;;;2.42;0.93;;;;;;;-142.75;100.00;77720.03;4948987;28;20097;-68
2022/12/06 11:29:36;;;;;;;2.42;0.75;;;;;;;-142.75;100.00;77745.66;4956600;28;20026;-69
2022/12/06 11:32:09;;;;;;;3.90;1.05;;;;;;;-142.75;100.00;77743.69;4957897;28;20060;-67
2022/12/06 11:34:40;;;;;;;2.83;0.80;;;;;;;-142.75;100.00;77710.19;4952530;28;20048;-68
2022/12/06 11:37:10;;;;;;;2.03;0.60;;;;;;;-142.75;100.00;77633.41;4959239;28;20072;-66
2022/12/06 11:39:38;;;;;;;2.13;0.63;;;;;;;-142.75;100.00;77619.63;4955623;28;20107;-67
2022/12/06 11:42:06;;;;;;;3.70;0.68;;;;;;;-142.75;100.00;77623.56;4962931;28;20164;-67
2022/12/06 11:44:42;;;;;;;5.25;1.08;;;;;;;-142.75;100.00;77601.91;4999037;28;20025;-68
2022/12/06 11:47:15;;;;;;;2.55;0.85;;;;;;;-142.75;100.00;77684.59;5007661;28;20506;-66
2022/12/06 11:49:44;;;;;;;2.67;0.73;;;;;;;-142.75;100.00;77755.50;5008673;28;20021;-67
2022/12/06 11:52:16;;;;;;;2.17;1.00;;;;;;;-142.75;100.00;77725.97;5013017;28;20025;-65